Main page
METAR-TAF:

METAR-TAF

Airports :

Hartness State Airport

Springfield, Vermont, United States

latitude: 43-20-33N, longitude: 072-31-18W, elevation: 574 ft

Current weather observation

The report was made 29 minutes ago, at 17:22 UTC
Wind 15 mph from the West/Southwest with gusts up to 33 mph
Temperature 34°F
Humidity 69%
Pressure 29.27 in. Hg
Visibility: 5 miles
Scattered clouds at a height of 2800 ft
Overcast at a height of 3600 ft
light snow

METAR: KVSF 271722Z AUTO 24013G29KT 5SM -SN SCT028 OVC036 01/M04 A2927 RMK AO2 PK WND 26029/1713 SNB13 P0000 T00061039

Time: 12:51 (17:51 UTC)


TAF: missing

Weather observations and forecasts of more than 4000 airports (METAR and TAF reports).

The available stations are represented by yellow and red dots on the map.

Hover mouse over dot to see the name of the station.

Then click to see weather observations and forecasts.

To change the map : click on the green buttons with a black cross to zoom in, on the green button with a dash to zoom out, or on the green arrows for adjacent maps.


METAR-TAF: